createdAt,value
2022-11-26T00:01:24.536Z,27.90
2022-11-26T00:03:59.599Z,25.60
2022-11-26T00:06:36.818Z,24.60
2022-11-26T00:09:16.067Z,23.80
2022-11-26T00:11:48.755Z,22.20
2022-11-26T00:14:21.802Z,21.80
2022-11-26T00:16:54.569Z,26.60
2022-11-26T00:19:27.954Z,26.60
2022-11-26T00:22:00.474Z,21.30
2022-11-26T00:24:33.191Z,19.50
2022-11-26T00:27:05.686Z,25.90
2022-11-26T00:29:38.496Z,26.50
2022-11-26T00:32:18.588Z,28.70
2022-11-26T00:34:51.084Z,24.40
2022-11-26T00:37:28.848Z,25.50
2022-11-26T00:40:01.398Z,23.20
2022-11-26T00:42:34.026Z,25.70
2022-11-26T00:45:15.793Z,27.80
2022-11-26T00:47:48.287Z,25.10
2022-11-26T00:50:23.785Z,27.90
2022-11-26T00:52:57.941Z,30.70
2022-11-26T00:55:35.841Z,21.70
2022-11-26T00:58:14.540Z,25.50
2022-11-26T01:00:47.180Z,23.70
2022-11-26T01:03:19.698Z,18.60
2022-11-26T01:05:56.578Z,20.90
2022-11-26T01:08:35.856Z,21.90
2022-11-26T01:11:12.607Z,18.80
2022-11-26T01:13:46.368Z,19.30
2022-11-26T01:16:24.315Z,18.90
2022-11-26T01:19:00.706Z,19.30
2022-11-26T01:21:34.186Z,19.80
2022-11-26T01:24:07.401Z,19.40
2022-11-26T01:26:44.064Z,19.60
2022-11-26T01:29:19.839Z,19.80
2022-11-26T01:31:52.350Z,18.00
2022-11-26T01:34:24.859Z,19.10
2022-11-26T01:36:57.469Z,20.60
2022-11-26T01:39:29.964Z,19.70
2022-11-26T01:42:10.290Z,22.20
2022-11-26T01:44:42.914Z,22.50
2022-11-26T01:47:31.927Z,23.20
2022-11-26T01:50:53.148Z,22.80
2022-11-26T01:53:43.197Z,23.30
2022-11-26T01:56:24.490Z,22.90
2022-11-26T01:59:02.900Z,24.30
2022-11-26T02:01:36.786Z,22.20
2022-11-26T02:04:21.142Z,24.30
2022-11-26T02:06:55.582Z,28.50
2022-11-26T02:09:29.739Z,36.60
2022-11-26T02:12:02.473Z,37.50
2022-11-26T02:14:40.237Z,34.70
2022-11-26T02:17:27.046Z,32.50
2022-11-26T02:20:47.248Z,33.10
2022-11-26T02:23:53.360Z,33.10
2022-11-26T02:27:17.911Z,31.20
2022-11-26T02:30:16.164Z,31.90
2022-11-26T02:32:59.691Z,30.90
2022-11-26T02:35:40.655Z,28.30
2022-11-26T02:38:18.164Z,29.90
2022-11-26T02:40:50.727Z,27.50
2022-11-26T02:43:24.432Z,27.60
2022-11-26T02:46:00.884Z,26.30
2022-11-26T02:48:37.200Z,26.60
2022-11-26T02:51:14.259Z,28.20
2022-11-26T02:53:50.125Z,27.60
2022-11-26T02:56:26.515Z,28.90
2022-11-26T02:59:00.648Z,29.70
2022-11-26T03:01:38.336Z,30.80
2022-11-26T03:04:18.807Z,31.70
2022-11-26T03:06:52.599Z,29.20
2022-11-26T03:09:26.320Z,29.00
2022-11-26T03:11:58.864Z,31.60
2022-11-26T03:14:31.319Z,32.40
2022-11-26T03:17:03.787Z,32.90
2022-11-26T03:19:36.271Z,29.10
2022-11-26T03:22:09.012Z,29.30
2022-11-26T03:24:41.929Z,29.10
2022-11-26T03:27:14.412Z,31.90
2022-11-26T03:29:46.862Z,29.70
2022-11-26T03:32:19.446Z,28.90
2022-11-26T03:34:51.939Z,27.10
2022-11-26T03:37:24.416Z,26.50
2022-11-26T03:39:56.954Z,28.90
2022-11-26T03:42:29.429Z,27.20
2022-11-26T03:45:01.923Z,27.20
2022-11-26T03:47:34.454Z,30.00
2022-11-26T03:50:08.676Z,26.00
2022-11-26T03:52:41.265Z,25.80
2022-11-26T03:55:14.212Z,25.30
2022-11-26T03:57:46.771Z,26.80
2022-11-26T04:00:21.786Z,24.60
2022-11-26T04:02:54.593Z,23.10
2022-11-26T04:05:27.154Z,26.60
2022-11-26T04:08:00.355Z,24.10
2022-11-26T04:10:32.813Z,22.30
2022-11-26T04:13:05.316Z,23.50
2022-11-26T04:15:38.066Z,21.60
2022-11-26T04:18:10.532Z,21.60
2022-11-26T04:20:43.333Z,21.70
2022-11-26T04:23:15.971Z,23.80
2022-11-26T04:25:48.492Z,23.30
2022-11-26T04:28:21.022Z,21.90
2022-11-26T04:30:53.595Z,22.10
2022-11-26T04:33:27.167Z,20.80
2022-11-26T04:35:59.655Z,20.00
2022-11-26T04:38:32.088Z,22.10
2022-11-26T04:41:04.603Z,21.30
2022-11-26T04:43:37.134Z,18.50
2022-11-26T04:46:09.949Z,21.20
2022-11-26T04:48:42.448Z,19.40
2022-11-26T04:51:14.947Z,20.90
2022-11-26T04:53:47.532Z,22.70
2022-11-26T04:56:20.252Z,23.70
2022-11-26T04:58:52.898Z,17.10
2022-11-26T05:01:25.626Z,17.10
2022-11-26T05:03:58.309Z,18.50
2022-11-26T05:06:30.864Z,24.20
2022-11-26T05:09:03.383Z,23.70
2022-11-26T05:11:35.890Z,18.60
2022-11-26T05:14:08.294Z,22.50
2022-11-26T05:16:41.020Z,22.20
2022-11-26T05:19:13.558Z,22.40
2022-11-26T05:21:46.068Z,24.40
2022-11-26T05:24:18.649Z,24.70
2022-11-26T05:26:56.655Z,23.40
2022-11-26T05:29:29.750Z,23.00
2022-11-26T05:32:02.270Z,24.20
2022-11-26T05:34:35.624Z,24.60
2022-11-26T05:37:08.199Z,21.00
2022-11-26T05:39:41.541Z,22.60
2022-11-26T05:42:15.448Z,23.00
2022-11-26T05:44:47.935Z,23.60
2022-11-26T05:47:20.402Z,22.80
2022-11-26T05:49:53.109Z,22.40
2022-11-26T05:52:25.789Z,22.50
2022-11-26T05:54:58.305Z,22.10
2022-11-26T05:57:30.836Z,22.50
2022-11-26T06:00:03.397Z,22.00
2022-11-26T06:02:44.316Z,23.10
2022-11-26T06:05:17.135Z,23.60
2022-11-26T06:07:49.727Z,23.30
2022-11-26T06:10:23.086Z,22.30
2022-11-26T06:12:55.740Z,23.50
2022-11-26T06:15:28.271Z,23.50
2022-11-26T06:18:00.691Z,24.40
2022-11-26T06:20:33.322Z,22.00
2022-11-26T06:23:06.064Z,24.50
2022-11-26T06:25:40.759Z,24.10
2022-11-26T06:28:13.851Z,21.60
2022-11-26T06:30:48.559Z,25.10
2022-11-26T06:33:21.114Z,25.50
2022-11-26T06:35:53.677Z,25.50
2022-11-26T06:38:26.123Z,24.70
2022-11-26T06:41:05.130Z,25.20
2022-11-26T06:43:38.509Z,26.00
2022-11-26T06:46:12.776Z,24.40
2022-11-26T06:48:45.407Z,25.90
2022-11-26T06:51:20.686Z,25.20
2022-11-26T06:53:53.262Z,26.40
2022-11-26T06:56:26.006Z,23.70
2022-11-26T06:58:59.548Z,26.60
2022-11-26T07:01:32.120Z,26.10
2022-11-26T07:04:04.948Z,25.50
2022-11-26T07:06:37.647Z,26.50
2022-11-26T07:09:12.490Z,25.90
2022-11-26T07:11:45.738Z,25.60
2022-11-26T07:14:18.293Z,25.30
2022-11-26T07:16:50.814Z,25.70
2022-11-26T07:19:23.323Z,23.90
2022-11-26T07:21:55.733Z,22.40
2022-11-26T07:24:28.311Z,23.00
2022-11-26T07:27:01.370Z,20.90
2022-11-26T07:29:34.199Z,25.40
2022-11-26T07:32:06.830Z,19.50
2022-11-26T07:34:39.615Z,19.60
2022-11-26T07:37:12.355Z,20.00
2022-11-26T07:39:45.035Z,20.60
2022-11-26T07:42:17.577Z,20.40
2022-11-26T07:44:50.093Z,23.40
2022-11-26T07:47:22.700Z,24.00
2022-11-26T07:49:55.213Z,20.60
2022-11-26T07:52:27.769Z,24.30
2022-11-26T07:55:00.181Z,24.60
2022-11-26T07:57:32.674Z,23.30
2022-11-26T08:00:05.561Z,22.50
2022-11-26T08:02:44.562Z,20.60
2022-11-26T08:05:17.474Z,19.10
2022-11-26T08:07:50.235Z,19.10
2022-11-26T08:10:22.948Z,16.70
2022-11-26T08:12:55.471Z,17.60
2022-11-26T08:15:28.049Z,17.00
2022-11-26T08:18:00.996Z,14.70
2022-11-26T08:20:33.455Z,16.00
2022-11-26T08:23:06.535Z,15.40
2022-11-26T08:25:59.275Z,14.00
2022-11-26T08:28:32.197Z,11.80
2022-11-26T08:31:07.815Z,11.30
2022-11-26T08:33:41.003Z,12.50
2022-11-26T08:36:14.738Z,12.00
2022-11-26T08:38:47.284Z,10.20
2022-11-26T08:41:19.979Z,9.40
2022-11-26T08:44:08.666Z,10.80
2022-11-26T08:46:42.634Z,10.40
2022-11-26T08:49:17.207Z,9.50
2022-11-26T08:51:49.836Z,9.10
2022-11-26T08:54:22.307Z,8.20
2022-11-26T08:56:55.640Z,8.40
2022-11-26T08:59:28.250Z,8.60
2022-11-26T09:02:00.711Z,6.30
2022-11-26T09:04:33.472Z,7.70
2022-11-26T09:07:06.189Z,7.70
2022-11-26T09:09:38.695Z,6.60
2022-11-26T09:12:11.881Z,6.80
2022-11-26T09:14:45.416Z,7.20
2022-11-26T09:17:18.021Z,6.30
2022-11-26T09:19:50.544Z,7.90
2022-11-26T09:22:23.011Z,6.90
2022-11-26T09:24:55.520Z,6.90
2022-11-26T09:27:28.115Z,6.60
2022-11-26T09:30:00.599Z,6.90
2022-11-26T09:32:34.596Z,7.50
2022-11-26T09:35:08.409Z,7.30
2022-11-26T09:37:41.108Z,7.60
2022-11-26T09:40:20.648Z,8.00
2022-11-26T09:43:05.473Z,7.20
2022-11-26T09:45:47.027Z,7.70
2022-11-26T09:48:24.319Z,7.60
2022-11-26T09:51:04.169Z,6.90
2022-11-26T09:53:41.448Z,5.60
2022-11-26T09:56:19.553Z,5.90
2022-11-26T09:58:56.991Z,3.90
2022-11-26T10:01:30.291Z,3.80
2022-11-26T10:04:03.138Z,2.90
2022-11-26T10:06:45.631Z,3.20
2022-11-26T10:09:44.469Z,3.20
2022-11-26T10:12:38.277Z,3.00
2022-11-26T10:15:29.414Z,3.90
2022-11-26T10:18:13.627Z,3.70
2022-11-26T10:20:56.363Z,5.80
2022-11-26T10:23:35.115Z,5.90
2022-11-26T10:26:17.171Z,5.40
2022-11-26T10:28:52.343Z,5.80
2022-11-26T10:31:28.229Z,6.80
2022-11-26T10:34:04.606Z,6.50
2022-11-26T10:36:41.727Z,6.20
2022-11-26T10:39:19.239Z,5.70
2022-11-26T10:41:52.095Z,5.70
2022-11-26T10:44:40.271Z,7.70
2022-11-26T10:47:32.093Z,7.30
2022-11-26T10:50:47.133Z,7.30
2022-11-26T10:53:25.250Z,8.10
2022-11-26T10:56:01.543Z,7.60
2022-11-26T10:58:42.976Z,7.80
2022-11-26T11:01:15.889Z,8.30
2022-11-26T11:04:11.259Z,9.80
2022-11-26T11:06:48.406Z,10.80
2022-11-26T11:09:36.793Z,8.90
2022-11-26T11:12:27.801Z,10.90
2022-11-26T11:15:20.263Z,9.80
2022-11-26T11:18:01.902Z,11.40
2022-11-26T11:20:38.479Z,11.60
2022-11-26T11:23:45.662Z,13.80
2022-11-26T11:26:24.788Z,12.30
2022-11-26T11:28:58.497Z,10.40
2022-11-26T11:31:45.906Z,13.10
2022-11-26T11:34:30.769Z,10.90
2022-11-26T11:37:15.081Z,15.30
2022-11-26T11:40:02.963Z,16.60
2022-11-26T11:42:35.618Z,19.40
2022-11-26T11:45:24.213Z,19.20
2022-11-26T11:48:01.641Z,18.90
2022-11-26T11:50:43.204Z,18.10
2022-11-26T11:53:39.899Z,19.10
2022-11-26T11:56:28.013Z,18.30
2022-11-26T11:59:37.071Z,16.90
2022-11-26T12:02:37.968Z,14.70
2022-11-26T12:05:49.889Z,19.20
2022-11-26T12:08:37.920Z,16.90
2022-11-26T12:11:28.319Z,21.90
2022-11-26T12:14:07.777Z,25.30
2022-11-26T12:16:46.390Z,22.30
2022-11-26T12:19:30.634Z,20.80
2022-11-26T12:22:08.684Z,18.20
2022-11-26T12:24:49.421Z,19.00
2022-11-26T12:27:34.196Z,21.30
2022-11-26T12:30:14.964Z,20.00
2022-11-26T12:32:52.327Z,20.70
2022-11-26T12:35:35.659Z,18.50
2022-11-26T12:38:14.980Z,19.60
2022-11-26T12:40:52.289Z,19.30
2022-11-26T12:43:34.728Z,18.10
2022-11-26T12:46:11.460Z,19.30
2022-11-26T12:48:54.123Z,19.30
2022-11-26T12:51:38.217Z,19.50
2022-11-26T12:54:19.218Z,18.20
2022-11-26T12:57:01.171Z,18.30
2022-11-26T12:59:39.297Z,17.90
2022-11-26T13:02:25.274Z,19.10
2022-11-26T13:05:00.051Z,17.50
2022-11-26T13:07:55.600Z,19.10
2022-11-26T13:10:39.538Z,19.20
2022-11-26T13:13:20.758Z,18.30
2022-11-26T13:16:08.303Z,18.90
2022-11-26T13:18:46.248Z,19.80
2022-11-26T13:21:36.132Z,18.30
2022-11-26T13:24:46.593Z,18.80
2022-11-26T13:27:38.403Z,18.50
2022-11-26T13:30:33.225Z,18.50
2022-11-26T13:33:39.446Z,19.30
2022-11-26T13:36:36.431Z,18.50
2022-11-26T13:39:39.293Z,19.30
2022-11-26T13:42:41.483Z,21.20
2022-11-26T13:45:52.247Z,20.00
2022-11-26T13:48:31.642Z,20.00
2022-11-26T13:51:10.334Z,18.50
2022-11-26T13:53:48.645Z,15.10
2022-11-26T13:56:26.137Z,20.60
2022-11-26T13:59:02.112Z,19.80
2022-11-26T14:01:40.536Z,19.60
2022-11-26T14:04:15.773Z,22.60
2022-11-26T14:07:22.273Z,18.70
2022-11-26T14:10:00.279Z,21.50
2022-11-26T14:13:17.211Z,22.40
2022-11-26T14:16:03.928Z,20.70
2022-11-26T14:19:00.954Z,22.30
2022-11-26T14:21:53.833Z,20.80
2022-11-26T14:24:59.689Z,19.80
2022-11-26T14:27:35.184Z,19.00
2022-11-26T14:30:23.563Z,15.50
2022-11-26T14:33:16.591Z,14.80
2022-11-26T14:35:59.509Z,23.40
2022-11-26T14:38:35.393Z,16.40
2022-11-26T14:41:08.260Z,16.00
2022-11-26T14:43:42.240Z,23.50
2022-11-26T14:46:18.929Z,19.10
2022-11-26T14:48:59.645Z,15.60
2022-11-26T14:51:33.285Z,18.90
2022-11-26T14:54:07.571Z,16.40
2022-11-26T14:56:45.240Z,13.80
2022-11-26T14:59:20.444Z,17.70
2022-11-26T15:01:53.075Z,15.20
2022-11-26T15:04:31.244Z,19.50
2022-11-26T15:07:03.852Z,18.30
2022-11-26T15:09:36.505Z,18.40
2022-11-26T15:12:15.879Z,18.40
2022-11-26T15:14:54.720Z,22.20
2022-11-26T15:17:30.401Z,16.60
2022-11-26T15:20:08.458Z,16.40
2022-11-26T15:22:44.523Z,16.10
2022-11-26T15:25:23.013Z,19.00
2022-11-26T15:28:00.405Z,18.60
2022-11-26T15:30:35.864Z,20.60
2022-11-26T15:33:15.353Z,20.50
2022-11-26T15:35:48.079Z,17.90
2022-11-26T15:38:22.238Z,17.20
2022-11-26T15:40:56.926Z,16.70
2022-11-26T15:43:34.493Z,18.90
2022-11-26T15:46:13.681Z,17.60
2022-11-26T15:48:53.501Z,19.80
2022-11-26T15:51:35.434Z,22.20
2022-11-26T15:54:19.198Z,17.90
2022-11-26T15:56:56.436Z,20.00
2022-11-26T15:59:42.486Z,24.60
2022-11-26T16:02:22.456Z,18.10
2022-11-26T16:04:57.056Z,19.50
2022-11-26T16:07:31.871Z,18.30
2022-11-26T16:10:31.105Z,22.00
2022-11-26T16:13:23.212Z,23.80
2022-11-26T16:16:01.692Z,24.30
2022-11-26T16:18:39.800Z,20.10
2022-11-26T16:21:24.601Z,22.40
2022-11-26T16:24:01.903Z,21.60
2022-11-26T16:26:53.313Z,20.50
2022-11-26T16:29:26.037Z,25.10
2022-11-26T16:31:59.240Z,22.20
2022-11-26T16:34:31.855Z,23.80
2022-11-26T16:37:26.080Z,27.40
2022-11-26T16:40:13.153Z,25.40
2022-11-26T16:42:46.076Z,26.00
2022-11-26T16:45:19.669Z,26.10
2022-11-26T16:47:55.571Z,27.40
2022-11-26T16:50:29.396Z,25.10
2022-11-26T16:53:01.853Z,21.90
2022-11-26T16:55:34.393Z,23.80
2022-11-26T16:58:07.257Z,24.10
2022-11-26T17:00:39.862Z,29.80
2022-11-26T17:03:14.455Z,24.70
2022-11-26T17:05:47.415Z,27.50
2022-11-26T17:08:20.387Z,26.80
2022-11-26T17:10:54.533Z,20.30
2022-11-26T17:13:29.665Z,25.80
2022-11-26T17:16:04.448Z,25.80
2022-11-26T17:18:37.025Z,24.30
2022-11-26T17:21:10.136Z,22.70
2022-11-26T17:23:42.709Z,23.30
2022-11-26T17:26:21.732Z,23.40
2022-11-26T17:28:54.955Z,25.60
2022-11-26T17:31:27.697Z,22.60
2022-11-26T17:34:00.320Z,24.10
2022-11-26T17:36:37.006Z,26.20
2022-11-26T17:39:10.686Z,24.20
2022-11-26T17:41:43.234Z,23.20
2022-11-26T17:44:15.799Z,27.20
2022-11-26T17:47:15.334Z,32.00
2022-11-26T17:49:41.413Z,27.70
2022-11-26T17:52:14.448Z,28.00
2022-11-26T17:54:48.018Z,28.00
2022-11-26T17:57:21.022Z,25.90
2022-11-26T17:59:53.901Z,27.50
2022-11-26T18:02:26.458Z,24.50
2022-11-26T18:04:58.927Z,25.50
2022-11-26T18:07:31.511Z,26.60
2022-11-26T18:10:04.267Z,26.70
2022-11-26T18:12:36.824Z,21.50
2022-11-26T18:15:17.460Z,26.90
2022-11-26T18:17:52.652Z,29.90
2022-11-26T18:20:29.328Z,25.10
2022-11-26T18:23:04.034Z,24.50
2022-11-26T18:25:37.208Z,27.40
2022-11-26T18:28:09.701Z,25.80
2022-11-26T18:30:42.215Z,24.60
2022-11-26T18:33:16.604Z,26.50
2022-11-26T18:35:51.582Z,24.40
2022-11-26T18:38:29.032Z,26.30
2022-11-26T18:41:06.693Z,25.70
2022-11-26T18:43:41.616Z,26.30
2022-11-26T18:46:17.079Z,25.20
2022-11-26T18:48:51.533Z,23.40
2022-11-26T18:51:24.344Z,21.80
2022-11-26T18:53:56.896Z,26.90
2022-11-26T18:56:29.480Z,23.50
2022-11-26T18:59:02.288Z,23.80
2022-11-26T19:01:35.596Z,24.80
2022-11-26T19:04:08.807Z,24.70
2022-11-26T19:06:41.789Z,22.20
2022-11-26T19:09:19.322Z,21.40
2022-11-26T19:11:53.292Z,23.40
2022-11-26T19:14:25.735Z,27.60
2022-11-26T19:16:58.394Z,29.30
2022-11-26T19:19:32.320Z,28.90
2022-11-26T19:22:04.834Z,28.00
2022-11-26T19:24:37.446Z,30.90
2022-11-26T19:27:10.429Z,27.10
2022-11-26T19:29:43.056Z,28.30
2022-11-26T19:32:15.603Z,25.90
2022-11-26T19:34:48.201Z,26.80
2022-11-26T19:37:20.954Z,29.80
2022-11-26T19:39:53.540Z,28.20
2022-11-26T19:42:26.174Z,25.30
2022-11-26T19:44:58.633Z,24.40
2022-11-26T19:47:31.323Z,24.30
2022-11-26T19:50:04.015Z,25.80
2022-11-26T19:52:36.968Z,31.00
2022-11-26T19:55:11.231Z,25.70
2022-11-26T19:57:43.756Z,35.80
2022-11-26T20:00:18.448Z,30.90
2022-11-26T20:02:51.089Z,29.00
2022-11-26T20:05:23.980Z,37.50
2022-11-26T20:07:56.604Z,28.10
2022-11-26T20:10:29.223Z,27.60
2022-11-26T20:13:01.848Z,26.20
2022-11-26T20:15:38.054Z,29.80
2022-11-26T20:18:11.090Z,27.00
2022-11-26T20:20:43.976Z,28.60
2022-11-26T20:23:16.487Z,29.40
2022-11-26T20:25:49.063Z,29.20
2022-11-26T20:28:22.004Z,32.00
2022-11-26T20:30:54.610Z,27.80
2022-11-26T20:33:27.190Z,31.40
2022-11-26T20:35:59.681Z,27.50
2022-11-26T20:38:32.233Z,27.40
2022-11-26T20:41:09.942Z,29.10
2022-11-26T20:43:42.604Z,28.90
2022-11-26T20:46:16.486Z,30.30
2022-11-26T20:48:49.283Z,28.60
2022-11-26T20:51:22.921Z,36.90
2022-11-26T20:53:58.593Z,42.30
2022-11-26T20:56:31.692Z,36.20
2022-11-26T20:59:05.436Z,30.80
2022-11-26T21:01:39.927Z,27.60
2022-11-26T21:04:12.900Z,24.20
2022-11-26T21:06:46.086Z,22.40
2022-11-26T21:09:19.223Z,21.80
2022-11-26T21:11:51.848Z,23.60
2022-11-26T21:14:24.742Z,23.10
2022-11-26T21:16:57.258Z,23.90
2022-11-26T21:19:30.249Z,26.70
2022-11-26T21:22:02.831Z,27.50
2022-11-26T21:24:37.218Z,26.60
2022-11-26T21:27:09.848Z,27.10
2022-11-26T21:29:42.449Z,25.60
2022-11-26T21:32:15.251Z,28.60
2022-11-26T21:34:47.808Z,26.70
2022-11-26T21:37:20.282Z,31.30
2022-11-26T21:39:52.842Z,26.80
2022-11-26T21:42:25.286Z,26.20
2022-11-26T21:44:57.816Z,25.90
2022-11-26T21:47:30.420Z,26.40
2022-11-26T21:50:02.986Z,27.30
2022-11-26T21:52:35.522Z,26.10
2022-11-26T21:55:09.002Z,23.90
2022-11-26T21:57:41.546Z,21.70
2022-11-26T22:00:18.039Z,21.40
2022-11-26T22:02:50.711Z,19.50
2022-11-26T22:05:23.421Z,22.20
2022-11-26T22:07:56.031Z,24.10
2022-11-26T22:10:32.029Z,22.40
2022-11-26T22:13:08.401Z,21.50
2022-11-26T22:15:44.520Z,22.50
2022-11-26T22:18:17.426Z,21.80
2022-11-26T22:20:55.351Z,19.30
2022-11-26T22:23:27.846Z,20.00
2022-11-26T22:26:00.438Z,20.30
2022-11-26T22:28:33.096Z,18.40
2022-11-26T22:31:13.350Z,20.80
2022-11-26T22:33:46.158Z,22.10
2022-11-26T22:36:19.125Z,17.00
2022-11-26T22:38:51.688Z,17.30
2022-11-26T22:41:24.862Z,20.90
2022-11-26T22:43:58.980Z,24.30
2022-11-26T22:46:34.281Z,23.00
2022-11-26T22:49:08.189Z,22.60
2022-11-26T22:51:40.794Z,21.80
2022-11-26T22:54:16.046Z,20.70
2022-11-26T22:56:48.546Z,23.80
2022-11-26T22:59:21.242Z,20.20
2022-11-26T23:01:57.676Z,23.60
2022-11-26T23:04:31.695Z,22.80
2022-11-26T23:07:04.451Z,20.20
2022-11-26T23:09:37.017Z,21.60
2022-11-26T23:12:10.512Z,22.70
2022-11-26T23:14:43.612Z,22.10
2022-11-26T23:17:16.197Z,23.90
2022-11-26T23:19:48.668Z,22.80
2022-11-26T23:22:21.231Z,19.50
2022-11-26T23:24:53.760Z,21.70
2022-11-26T23:27:26.440Z,20.00
2022-11-26T23:30:00.195Z,20.40
2022-11-26T23:32:32.992Z,20.40
2022-11-26T23:35:06.142Z,21.70
2022-11-26T23:37:38.999Z,19.90
2022-11-26T23:40:14.815Z,22.10
2022-11-26T23:42:47.489Z,19.60
2022-11-26T23:45:20.232Z,18.10
2022-11-26T23:47:52.650Z,20.60
2022-11-26T23:50:25.110Z,20.10
2022-11-26T23:52:57.581Z,19.80
2022-11-26T23:55:30.407Z,20.10
2022-11-26T23:58:03.054Z,21.00
